createdAt,value
2018-03-24T00:01:26.000Z,19.57
2018-03-24T00:03:53.471Z,20.97
2018-03-24T00:06:20.915Z,20.47
2018-03-24T00:08:48.369Z,22.77
2018-03-24T00:11:15.803Z,21.93
2018-03-24T00:13:43.242Z,19.10
2018-03-24T00:16:10.704Z,22.23
2018-03-24T00:18:38.902Z,22.40
2018-03-24T00:21:06.358Z,22.73
2018-03-24T00:23:33.810Z,21.00
2018-03-24T00:26:01.264Z,21.27
2018-03-24T00:28:28.698Z,20.87
2018-03-24T00:30:56.153Z,19.47
2018-03-24T00:33:23.591Z,21.03
2018-03-24T00:35:52.071Z,21.43
2018-03-24T00:38:19.497Z,21.53
2018-03-24T00:40:47.727Z,20.47
2018-03-24T00:43:15.944Z,20.80
2018-03-24T00:45:43.391Z,20.93
2018-03-24T00:48:10.826Z,20.70
2018-03-24T00:50:39.047Z,20.70
2018-03-24T00:53:06.483Z,21.50
2018-03-24T00:55:33.927Z,21.10
2018-03-24T00:58:02.130Z,20.63
2018-03-24T01:00:29.580Z,21.60
2018-03-24T01:02:57.778Z,20.80
2018-03-24T01:05:25.225Z,21.57
2018-03-24T01:07:53.447Z,21.63
2018-03-24T01:10:20.883Z,21.37
2018-03-24T01:12:48.336Z,20.80
2018-03-24T01:15:15.774Z,21.00
2018-03-24T01:17:43.235Z,20.13
2018-03-24T01:20:10.670Z,20.37
2018-03-24T01:22:38.118Z,20.93
2018-03-24T01:25:05.557Z,20.53
2018-03-24T01:27:33.013Z,20.40
2018-03-24T01:30:00.446Z,21.73
2018-03-24T01:32:28.665Z,21.20
2018-03-24T01:34:56.111Z,20.37
2018-03-24T01:37:23.567Z,21.53
2018-03-24T01:39:51.766Z,20.67
2018-03-24T01:42:19.241Z,20.33
2018-03-24T01:44:46.681Z,19.77
2018-03-24T01:47:14.114Z,20.93
2018-03-24T01:49:41.565Z,21.33
2018-03-24T01:52:09.019Z,20.80
2018-03-24T01:54:36.464Z,19.93
2018-03-24T01:57:03.901Z,19.40
2018-03-24T01:59:31.354Z,19.27
2018-03-24T02:01:58.801Z,20.57
2018-03-24T02:04:27.021Z,20.33
2018-03-24T02:06:54.459Z,19.57
2018-03-24T02:09:22.679Z,20.20
2018-03-24T02:11:50.156Z,22.40
2018-03-24T02:14:17.574Z,21.40
2018-03-24T02:16:45.022Z,20.93
2018-03-24T02:19:12.467Z,18.00
2018-03-24T02:21:43.308Z,20.60
2018-03-24T02:24:10.735Z,20.03
2018-03-24T02:26:38.186Z,19.83
2018-03-24T02:29:05.639Z,21.17
2018-03-24T02:31:33.077Z,19.77
2018-03-24T02:34:00.534Z,20.13
2018-03-24T02:36:28.743Z,21.03
2018-03-24T02:38:56.236Z,20.37
2018-03-24T02:41:23.679Z,20.30
2018-03-24T02:43:51.129Z,20.17
2018-03-24T02:46:18.569Z,20.43
2018-03-24T02:48:46.015Z,19.50
2018-03-24T02:51:14.218Z,17.70
2018-03-24T02:53:41.667Z,20.57
2018-03-24T02:56:09.865Z,18.33
2018-03-24T02:58:37.305Z,20.17
2018-03-24T03:01:05.506Z,19.80
2018-03-24T03:03:32.959Z,18.60
2018-03-24T03:06:00.399Z,18.73
2018-03-24T03:08:28.611Z,18.77
2018-03-24T03:10:56.064Z,19.27
2018-03-24T03:13:23.513Z,19.10
2018-03-24T03:15:51.723Z,19.17
2018-03-24T03:18:19.179Z,19.37
2018-03-24T03:20:46.630Z,19.00
2018-03-24T03:23:14.852Z,21.17
2018-03-24T03:25:42.270Z,20.07
2018-03-24T03:28:09.715Z,19.77
2018-03-24T03:30:53.694Z,19.70
2018-03-24T03:33:21.137Z,19.47
2018-03-24T03:35:48.575Z,20.17
2018-03-24T03:38:16.803Z,18.40
2018-03-24T03:40:44.242Z,18.67
2018-03-24T03:43:11.702Z,19.83
2018-03-24T03:45:39.184Z,18.60
2018-03-24T03:48:06.633Z,19.37
2018-03-24T03:50:34.087Z,19.53
2018-03-24T03:53:01.523Z,19.50
2018-03-24T03:55:28.970Z,19.90
2018-03-24T03:57:56.410Z,19.70
2018-03-24T04:00:23.857Z,19.60
2018-03-24T04:02:51.315Z,20.03
2018-03-24T04:05:18.773Z,19.63
2018-03-24T04:07:46.215Z,18.30
2018-03-24T04:10:14.423Z,17.80
2018-03-24T04:12:41.890Z,19.23
2018-03-24T04:15:09.351Z,20.87
2018-03-24T04:17:36.784Z,20.00
2018-03-24T04:20:05.010Z,20.03
2018-03-24T04:22:32.442Z,20.10
2018-03-24T04:24:59.894Z,19.80
2018-03-24T04:27:27.336Z,19.27
2018-03-24T04:29:54.782Z,17.93
2018-03-24T04:32:22.229Z,19.80
2018-03-24T04:34:49.683Z,20.03
2018-03-24T04:37:17.122Z,21.07
2018-03-24T04:39:44.585Z,19.83
2018-03-24T04:42:12.031Z,19.53
2018-03-24T04:44:39.471Z,19.60
2018-03-24T04:47:06.935Z,18.27
2018-03-24T04:49:34.379Z,19.47
2018-03-24T04:52:01.822Z,19.63
2018-03-24T04:54:29.268Z,21.23
2018-03-24T04:56:56.723Z,19.10
2018-03-24T04:59:24.154Z,19.10
2018-03-24T05:01:52.382Z,19.67
2018-03-24T05:04:19.846Z,19.63
2018-03-24T05:06:47.291Z,20.03
2018-03-24T05:09:14.762Z,19.03
2018-03-24T05:11:42.229Z,20.73
2018-03-24T05:14:09.682Z,18.23
2018-03-24T05:16:37.114Z,19.27
2018-03-24T05:19:05.336Z,18.80
2018-03-24T05:21:32.764Z,19.90
2018-03-24T05:24:00.223Z,19.53
2018-03-24T05:26:28.431Z,18.77
2018-03-24T05:28:55.880Z,19.53
2018-03-24T05:31:24.082Z,20.37
2018-03-24T05:33:51.527Z,19.77
2018-03-24T05:36:18.979Z,20.30
2018-03-24T05:38:46.422Z,19.90
2018-03-24T05:41:14.648Z,20.07
2018-03-24T05:43:42.096Z,17.87
2018-03-24T05:46:09.540Z,21.00
2018-03-24T05:48:37.853Z,17.23
2018-03-24T05:51:05.217Z,19.43
2018-03-24T05:53:32.665Z,20.80
2018-03-24T05:56:00.119Z,20.50
2018-03-24T05:58:27.588Z,19.30
2018-03-24T06:00:55.062Z,19.80
2018-03-24T06:03:22.498Z,21.60
2018-03-24T06:05:50.702Z,23.67
2018-03-24T06:08:18.160Z,21.80
2018-03-24T06:10:47.006Z,19.20
2018-03-24T06:13:14.506Z,22.07
2018-03-24T06:15:41.911Z,21.90
2018-03-24T06:18:09.342Z,20.67
2018-03-24T06:20:36.780Z,18.40
2018-03-24T06:23:04.221Z,22.27
2018-03-24T06:25:31.654Z,22.10
2018-03-24T06:27:59.098Z,21.87
2018-03-24T06:30:30.158Z,21.37
2018-03-24T06:32:57.620Z,22.83
2018-03-24T06:35:25.061Z,21.23
2018-03-24T06:37:52.494Z,22.83
2018-03-24T06:40:20.718Z,20.50
2018-03-24T06:42:48.150Z,22.20
2018-03-24T06:45:15.629Z,21.30
2018-03-24T06:47:43.062Z,21.13
2018-03-24T06:50:11.295Z,20.93
2018-03-24T06:52:38.732Z,21.53
2018-03-24T06:55:06.193Z,20.23
2018-03-24T06:57:34.412Z,20.67
2018-03-24T07:00:01.852Z,20.37
2018-03-24T07:02:29.301Z,21.43
2018-03-24T07:04:56.754Z,19.50
2018-03-24T07:07:24.186Z,20.97
2018-03-24T07:09:52.438Z,22.00
2018-03-24T07:12:19.874Z,22.33
2018-03-24T07:14:47.318Z,20.87
2018-03-24T07:17:14.790Z,21.03
2018-03-24T07:19:42.228Z,20.10
2018-03-24T07:22:10.451Z,19.67
2018-03-24T07:24:37.922Z,19.97
2018-03-24T07:27:05.375Z,19.33
2018-03-24T07:29:32.822Z,21.93
2018-03-24T07:32:00.276Z,20.33
2018-03-24T07:34:27.745Z,19.63
2018-03-24T07:36:55.203Z,20.37
2018-03-24T07:39:22.638Z,18.67
2018-03-24T07:41:50.847Z,19.60
2018-03-24T07:44:18.350Z,19.83
2018-03-24T07:46:45.798Z,18.87
2018-03-24T07:49:13.258Z,19.97
2018-03-24T07:51:40.698Z,19.27
2018-03-24T07:54:08.142Z,17.70
2018-03-24T07:56:35.587Z,21.27
2018-03-24T07:59:03.802Z,17.93
2018-03-24T08:01:31.240Z,18.23
2018-03-24T08:03:59.459Z,20.07
2018-03-24T08:06:26.916Z,18.50
2018-03-24T08:08:54.363Z,19.80
2018-03-24T08:11:21.810Z,19.17
2018-03-24T08:13:50.112Z,19.17
2018-03-24T08:16:17.545Z,18.73
2018-03-24T08:18:45.787Z,19.43
2018-03-24T08:21:13.261Z,18.80
2018-03-24T08:23:40.720Z,20.20
2018-03-24T08:26:08.171Z,18.03
2018-03-24T08:28:35.654Z,19.30
2018-03-24T08:31:03.118Z,20.00
2018-03-24T08:33:30.578Z,20.13
2018-03-24T08:35:58.058Z,19.50
2018-03-24T08:38:26.291Z,18.23
2018-03-24T08:40:53.711Z,18.40
2018-03-24T08:43:21.917Z,19.33
2018-03-24T08:45:49.354Z,18.23
2018-03-24T08:48:17.590Z,18.43
2018-03-24T08:50:45.039Z,18.77
2018-03-24T08:53:12.483Z,18.27
2018-03-24T08:55:39.923Z,17.90
2018-03-24T08:58:08.126Z,17.20
2018-03-24T09:00:35.565Z,17.53
2018-03-24T09:03:03.785Z,17.77
2018-03-24T09:05:31.230Z,17.80
2018-03-24T09:07:58.715Z,17.50
2018-03-24T09:10:26.192Z,17.57
2018-03-24T09:12:53.654Z,17.07
2018-03-24T09:15:21.109Z,16.67
2018-03-24T09:17:48.563Z,16.47
2018-03-24T09:20:16.029Z,17.47
2018-03-24T09:22:43.480Z,16.47
2018-03-24T09:25:10.939Z,16.57
2018-03-24T09:27:38.395Z,18.17
2018-03-24T09:30:05.866Z,17.23
2018-03-24T09:32:34.265Z,17.37
2018-03-24T09:35:02.619Z,16.67
2018-03-24T09:37:30.834Z,17.33
2018-03-24T09:39:58.268Z,18.13
2018-03-24T09:42:26.132Z,16.27
2018-03-24T09:44:53.616Z,15.97
2018-03-24T09:47:21.085Z,16.70
2018-03-24T09:49:48.543Z,16.90
2018-03-24T09:52:16.003Z,15.83
2018-03-24T09:54:43.490Z,16.00
2018-03-24T09:57:10.956Z,15.50
2018-03-24T09:59:38.401Z,16.67
2018-03-24T10:02:05.854Z,15.77
2018-03-24T10:04:33.307Z,14.47
2018-03-24T10:07:00.759Z,16.47
2018-03-24T10:09:28.228Z,15.87
2018-03-24T10:11:55.709Z,16.10
2018-03-24T10:14:23.980Z,15.27
2018-03-24T10:16:51.431Z,15.80
2018-03-24T10:19:18.881Z,15.37
2018-03-24T10:24:46.688Z,19.50
2018-03-24T10:27:14.158Z,16.83
2018-03-24T10:29:41.617Z,16.33
2018-03-24T10:32:09.075Z,16.40
2018-03-24T10:34:36.543Z,15.27
2018-03-24T10:37:04.019Z,14.50
2018-03-24T10:39:31.454Z,15.30
2018-03-24T10:41:58.918Z,14.87
2018-03-24T10:44:26.364Z,14.60
2018-03-24T10:46:53.810Z,12.83
2018-03-24T10:49:22.042Z,12.03
2018-03-24T10:51:49.486Z,12.20
2018-03-24T10:54:16.947Z,12.17
2018-03-24T10:56:44.383Z,12.47
2018-03-24T10:59:12.591Z,12.37
2018-03-24T11:01:40.062Z,12.43
2018-03-24T11:04:07.629Z,11.00
2018-03-24T11:06:35.068Z,11.73
2018-03-24T11:09:02.539Z,12.00
2018-03-24T11:11:30.004Z,12.47
2018-03-24T11:13:57.504Z,13.30
2018-03-24T11:16:24.970Z,11.90
2018-03-24T11:18:52.425Z,12.10
2018-03-24T11:21:19.887Z,11.60
2018-03-24T11:23:47.340Z,12.10
2018-03-24T11:26:14.785Z,11.30
2018-03-24T11:28:42.264Z,11.60
2018-03-24T11:31:09.709Z,12.10
2018-03-24T11:33:37.172Z,11.13
2018-03-24T11:36:04.631Z,12.60
2018-03-24T11:38:32.069Z,11.57
2018-03-24T11:41:00.291Z,12.00
2018-03-24T11:43:27.744Z,12.87
2018-03-24T11:45:55.210Z,13.17
2018-03-24T11:48:22.676Z,12.63
2018-03-24T11:50:50.290Z,11.40
2018-03-24T11:53:17.746Z,11.97
2018-03-24T11:55:45.189Z,12.87
2018-03-24T11:58:12.656Z,11.50
2018-03-24T12:00:40.123Z,12.57
2018-03-24T12:03:07.559Z,12.43
2018-03-24T12:05:35.018Z,12.60
2018-03-24T12:08:02.462Z,12.10
2018-03-24T12:10:29.952Z,13.00
2018-03-24T12:12:57.391Z,12.30
2018-03-24T12:15:24.825Z,12.60
2018-03-24T12:17:53.054Z,13.07
2018-03-24T12:20:20.523Z,11.97
2018-03-24T12:22:48.744Z,12.70
2018-03-24T12:25:16.954Z,13.00
2018-03-24T12:27:44.427Z,12.73
2018-03-24T12:30:11.855Z,12.80
2018-03-24T12:32:40.094Z,13.07
2018-03-24T12:35:07.535Z,12.97
2018-03-24T12:37:34.982Z,12.97
2018-03-24T12:40:02.429Z,13.07
2018-03-24T12:42:29.905Z,14.37
2018-03-24T12:44:57.355Z,12.13
2018-03-24T12:47:24.831Z,12.70
2018-03-24T12:49:52.277Z,12.17
2018-03-24T12:52:19.723Z,11.50
2018-03-24T12:54:47.165Z,12.47
2018-03-24T12:57:14.615Z,12.83
2018-03-24T12:59:42.084Z,13.27
2018-03-24T13:02:11.035Z,12.57
2018-03-24T13:04:38.494Z,12.23
2018-03-24T13:07:05.922Z,12.73
2018-03-24T13:09:33.382Z,13.00
2018-03-24T13:12:00.825Z,11.50
2018-03-24T13:14:28.282Z,12.07
2018-03-24T13:16:55.754Z,11.50
2018-03-24T13:19:23.224Z,11.23
2018-03-24T13:21:50.988Z,11.97
2018-03-24T13:24:18.433Z,11.67
2018-03-24T13:26:45.877Z,11.67
2018-03-24T13:29:14.138Z,11.47
2018-03-24T13:31:41.605Z,11.27
2018-03-24T13:34:09.081Z,11.27
2018-03-24T13:36:36.530Z,11.27
2018-03-24T13:39:03.982Z,11.00
2018-03-24T13:41:32.219Z,11.30
2018-03-24T13:43:59.673Z,11.27
2018-03-24T13:46:27.163Z,10.93
2018-03-24T13:48:54.593Z,10.10
2018-03-24T13:51:22.021Z,10.90
2018-03-24T13:53:49.480Z,11.07
2018-03-24T13:56:17.786Z,10.33
2018-03-24T13:58:45.204Z,10.40
2018-03-24T14:01:12.654Z,10.13
2018-03-24T14:03:40.141Z,11.13
2018-03-24T14:06:08.361Z,11.37
2018-03-24T14:08:35.823Z,10.67
2018-03-24T14:11:03.264Z,10.67
2018-03-24T14:13:30.694Z,10.23
2018-03-24T14:15:58.192Z,11.13
2018-03-24T14:18:25.587Z,11.43
2018-03-24T14:20:53.043Z,11.63
2018-03-24T14:23:20.488Z,10.83
2018-03-24T14:25:47.953Z,10.90
2018-03-24T14:28:15.428Z,10.67
2018-03-24T14:30:42.891Z,10.37
2018-03-24T14:33:10.344Z,10.93
2018-03-24T14:35:37.807Z,10.73
2018-03-24T14:38:06.486Z,10.10
2018-03-24T14:40:33.926Z,11.60
2018-03-24T14:43:02.162Z,11.40
2018-03-24T14:45:30.662Z,11.00
2018-03-24T14:47:58.127Z,11.80
2018-03-24T14:50:25.579Z,11.93
2018-03-24T14:52:53.046Z,12.33
2018-03-24T14:55:20.497Z,11.00
2018-03-24T14:57:47.976Z,12.47
2018-03-24T15:00:15.435Z,11.90
2018-03-24T15:02:42.919Z,12.47
2018-03-24T15:05:10.368Z,11.73
2018-03-24T15:07:37.828Z,10.60
2018-03-24T15:10:05.280Z,12.57
2018-03-24T15:12:32.823Z,10.93
2018-03-24T15:15:00.216Z,13.30
2018-03-24T15:17:27.680Z,11.43
2018-03-24T15:19:55.214Z,11.27
2018-03-24T15:22:22.665Z,11.53
2018-03-24T15:24:50.124Z,13.70
2018-03-24T15:27:17.573Z,11.70
2018-03-24T15:30:10.529Z,13.50
2018-03-24T15:32:49.742Z,10.80
2018-03-24T15:35:32.729Z,12.40
2018-03-24T15:38:00.180Z,11.63
2018-03-24T15:40:27.637Z,11.37
2018-03-24T15:42:55.083Z,11.70
2018-03-24T15:45:22.546Z,11.60
2018-03-24T15:47:49.987Z,11.80
2018-03-24T15:50:17.467Z,11.67
2018-03-24T15:52:44.915Z,10.83
2018-03-24T15:55:12.379Z,12.07
2018-03-24T15:57:39.843Z,12.60
2018-03-24T16:00:07.322Z,11.83
2018-03-24T16:02:34.784Z,11.10
2018-03-24T16:05:02.268Z,12.00
2018-03-24T16:07:29.714Z,12.20
2018-03-24T16:09:57.163Z,13.60
2018-03-24T16:12:24.614Z,11.80
2018-03-24T16:14:52.064Z,11.73
2018-03-24T16:17:19.523Z,11.87
2018-03-24T16:19:47.731Z,11.97
2018-03-24T16:22:15.188Z,12.57
2018-03-24T16:24:42.663Z,11.83
2018-03-24T16:27:10.129Z,12.20
2018-03-24T16:29:37.587Z,11.67
2018-03-24T16:32:05.042Z,12.63
2018-03-24T16:34:32.539Z,12.23
2018-03-24T16:36:59.985Z,12.60
2018-03-24T16:39:27.494Z,12.60
2018-03-24T16:41:55.754Z,12.23
2018-03-24T16:44:23.234Z,13.10
2018-03-24T16:46:50.679Z,12.70
2018-03-24T16:49:18.141Z,12.47
2018-03-24T16:51:45.600Z,17.87
2018-03-24T16:54:13.038Z,13.47
2018-03-24T16:56:40.491Z,13.43
2018-03-24T16:59:07.948Z,11.97
2018-03-24T17:01:35.396Z,13.00
2018-03-24T17:04:02.872Z,12.57
2018-03-24T17:06:30.358Z,13.67
2018-03-24T17:08:57.819Z,13.60
2018-03-24T17:11:25.287Z,12.07
2018-03-24T17:13:52.757Z,12.90
2018-03-24T17:16:20.215Z,13.50
2018-03-24T17:18:47.698Z,25.33
2018-03-24T17:21:15.143Z,13.57
2018-03-24T17:23:42.591Z,13.23
2018-03-24T17:26:10.064Z,15.07
2018-03-24T17:28:37.507Z,13.57
2018-03-24T17:31:04.958Z,14.17
2018-03-24T17:33:32.424Z,16.13
2018-03-24T17:36:00.649Z,13.13
2018-03-24T17:38:28.095Z,14.00
2018-03-24T17:40:55.541Z,14.60
2018-03-24T17:43:23.006Z,14.97
2018-03-24T17:45:50.464Z,14.60
2018-03-24T17:48:18.036Z,14.00
2018-03-24T17:50:45.378Z,14.10
2018-03-24T17:53:12.860Z,13.83
2018-03-24T17:55:40.366Z,13.03
2018-03-24T17:58:07.805Z,13.60
2018-03-24T18:00:35.325Z,12.97
2018-03-24T18:03:03.538Z,12.87
2018-03-24T18:05:31.015Z,13.37
2018-03-24T18:07:58.544Z,13.00
2018-03-24T18:10:26.002Z,12.83
2018-03-24T18:12:53.464Z,12.73
2018-03-24T18:15:20.932Z,12.67
2018-03-24T18:17:48.490Z,13.37
2018-03-24T18:20:15.936Z,12.93
2018-03-24T18:22:43.405Z,13.73
2018-03-24T18:25:10.887Z,14.07
2018-03-24T18:27:38.343Z,13.23
2018-03-24T18:30:05.788Z,12.83
2018-03-24T18:32:33.241Z,13.50
2018-03-24T18:35:01.472Z,13.47
2018-03-24T18:37:28.915Z,13.43
2018-03-24T18:39:56.382Z,13.17
2018-03-24T18:42:24.670Z,12.97
2018-03-24T18:44:52.114Z,13.63
2018-03-24T18:47:19.578Z,13.00
2018-03-24T18:49:47.034Z,12.90
2018-03-24T18:52:14.490Z,13.83
2018-03-24T18:54:41.966Z,13.07
2018-03-24T18:57:09.407Z,14.10
2018-03-24T18:59:37.627Z,13.03
2018-03-24T19:02:05.086Z,13.23
2018-03-24T19:04:32.533Z,12.60
2018-03-24T19:06:59.974Z,12.10
2018-03-24T19:09:28.213Z,13.27
2018-03-24T19:11:55.675Z,12.47
2018-03-24T19:14:23.125Z,12.37
2018-03-24T19:16:50.554Z,11.93
2018-03-24T19:19:18.189Z,11.87
2018-03-24T19:21:45.637Z,11.93
2018-03-24T19:24:13.091Z,11.33
2018-03-24T19:26:40.547Z,11.53
2018-03-24T19:29:08.015Z,12.17
2018-03-24T19:31:36.259Z,12.27
2018-03-24T19:34:03.724Z,11.53
2018-03-24T19:36:31.161Z,12.57
2018-03-24T19:38:59.397Z,11.47
2018-03-24T19:41:26.900Z,11.00
2018-03-24T19:43:54.341Z,11.97
2018-03-24T19:46:21.814Z,11.70
2018-03-24T19:48:49.335Z,12.53
2018-03-24T19:51:16.780Z,12.03
2018-03-24T19:53:44.234Z,12.27
2018-03-24T19:56:11.679Z,11.97
2018-03-24T19:58:39.907Z,12.00
2018-03-24T20:01:07.365Z,10.93
2018-03-24T20:03:34.813Z,11.93
2018-03-24T20:06:02.276Z,12.70
2018-03-24T20:08:29.736Z,12.57
2018-03-24T20:10:57.163Z,12.10
2018-03-24T20:13:25.415Z,12.03
2018-03-24T20:15:52.849Z,11.73
2018-03-24T20:18:20.305Z,11.93
2018-03-24T20:20:47.758Z,12.20
2018-03-24T20:23:15.197Z,12.17
2018-03-24T20:25:43.416Z,11.80
2018-03-24T20:28:10.855Z,11.67
2018-03-24T20:30:38.312Z,12.33
2018-03-24T20:33:06.542Z,11.77
2018-03-24T20:35:34.021Z,12.40
2018-03-24T20:38:01.542Z,11.43
2018-03-24T20:40:28.962Z,11.43
2018-03-24T20:42:56.530Z,12.17
2018-03-24T20:45:23.983Z,12.00
2018-03-24T20:47:51.420Z,12.53
2018-03-24T20:50:18.866Z,11.60
2018-03-24T20:52:46.307Z,12.30
2018-03-24T20:55:13.767Z,12.13
2018-03-24T20:57:41.214Z,12.50
2018-03-24T21:00:09.444Z,12.83
2018-03-24T21:02:36.882Z,12.83
2018-03-24T21:05:04.326Z,13.60
2018-03-24T21:07:32.547Z,13.13
2018-03-24T21:10:00.012Z,13.70
2018-03-24T21:12:27.496Z,13.47
2018-03-24T21:14:54.962Z,13.93
2018-03-24T21:17:22.413Z,13.60
2018-03-24T21:19:49.875Z,14.20
2018-03-24T21:22:17.324Z,14.27
2018-03-24T21:24:44.786Z,15.20
2018-03-24T21:27:12.240Z,15.13
2018-03-24T21:29:39.715Z,16.57
2018-03-24T21:32:07.186Z,14.57
2018-03-24T21:34:34.651Z,16.50
2018-03-24T21:37:03.225Z,16.47
2018-03-24T21:39:30.785Z,15.63
2018-03-24T21:41:58.418Z,15.90
2018-03-24T21:44:25.906Z,18.57
2018-03-24T21:46:53.374Z,17.70
2018-03-24T21:49:20.891Z,17.43
2018-03-24T21:51:48.335Z,18.53
2018-03-24T21:54:15.802Z,16.77
2018-03-24T21:56:43.270Z,15.87
2018-03-24T21:59:10.723Z,17.83
2018-03-24T22:01:38.256Z,17.80
2018-03-24T22:04:05.696Z,19.13
2018-03-24T22:06:33.154Z,20.23
2018-03-24T22:09:00.616Z,19.83
2018-03-24T22:11:28.080Z,18.37
2018-03-24T22:13:55.517Z,21.47
2018-03-24T22:16:23.738Z,17.87
2018-03-24T22:18:51.200Z,18.40
2018-03-24T22:21:18.730Z,19.20
2018-03-24T22:23:46.136Z,19.30
2018-03-24T22:26:13.606Z,17.93
2018-03-24T22:28:41.056Z,18.30
2018-03-24T22:31:08.515Z,19.80
2018-03-24T22:33:36.000Z,20.00
2018-03-24T22:36:03.465Z,22.50
2018-03-24T22:38:30.919Z,21.63
2018-03-24T22:40:58.373Z,19.87
2018-03-24T22:43:25.805Z,19.13
2018-03-24T22:45:54.014Z,21.53
2018-03-24T22:48:21.473Z,22.90
2018-03-24T22:50:48.944Z,23.80
2018-03-24T22:53:16.382Z,24.30
2018-03-24T22:55:43.821Z,22.40
2018-03-24T22:58:12.035Z,22.80
2018-03-24T23:00:39.489Z,24.90
2018-03-24T23:03:06.934Z,23.37
2018-03-24T23:05:35.149Z,21.87
2018-03-24T23:08:02.640Z,23.93
2018-03-24T23:10:30.090Z,24.07
2018-03-24T23:12:57.538Z,22.93
2018-03-24T23:15:24.987Z,22.10
2018-03-24T23:17:52.429Z,22.77
2018-03-24T23:20:20.642Z,23.73
2018-03-24T23:22:48.099Z,25.37
2018-03-24T23:25:15.545Z,23.43
2018-03-24T23:27:42.986Z,24.80
2018-03-24T23:30:11.201Z,23.93
2018-03-24T23:32:38.628Z,25.20
2018-03-24T23:35:06.838Z,24.83
2018-03-24T23:37:34.321Z,25.00
2018-03-24T23:40:02.587Z,23.67
2018-03-24T23:42:30.808Z,24.83
2018-03-24T23:44:58.267Z,23.27
2018-03-24T23:47:25.706Z,23.27
2018-03-24T23:49:53.162Z,25.33
2018-03-24T23:52:20.601Z,25.47
2018-03-24T23:54:48.038Z,24.87
2018-03-24T23:57:15.475Z,24.67
2018-03-24T23:59:42.922Z,26.17
